sensor_id;sensor_type;location;lat;lon;timestamp;P1;durP1;ratioP1;P2;durP2;ratioP2
12623;SDS011;6377;42.836;23.998;2023-02-11T00:02:08;113.67;;;47.07;;
12623;SDS011;6377;42.836;23.998;2023-02-11T00:04:36;140.70;;;55.13;;
12623;SDS011;6377;42.836;23.998;2023-02-11T00:07:04;91.80;;;41.70;;
12623;SDS011;6377;42.836;23.998;2023-02-11T00:09:32;97.00;;;43.73;;
12623;SDS011;6377;42.836;23.998;2023-02-11T00:11:59;124.03;;;51.67;;
12623;SDS011;6377;42.836;23.998;2023-02-11T00:14:26;86.47;;;37.53;;
12623;SDS011;6377;42.836;23.998;2023-02-11T00:16:54;67.57;;;32.37;;
12623;SDS011;6377;42.836;23.998;2023-02-11T00:19:21;58.90;;;29.90;;
12623;SDS011;6377;42.836;23.998;2023-02-11T00:21:48;51.03;;;24.73;;
12623;SDS011;6377;42.836;23.998;2023-02-11T00:24:17;45.10;;;21.70;;
12623;SDS011;6377;42.836;23.998;2023-02-11T00:26:44;44.53;;;21.10;;
12623;SDS011;6377;42.836;23.998;2023-02-11T00:29:12;43.73;;;20.50;;
12623;SDS011;6377;42.836;23.998;2023-02-11T00:31:39;43.80;;;22.80;;
12623;SDS011;6377;42.836;23.998;2023-02-11T00:34:06;41.40;;;19.60;;
12623;SDS011;6377;42.836;23.998;2023-02-11T00:36:33;53.60;;;22.67;;
12623;SDS011;6377;42.836;23.998;2023-02-11T00:39:01;40.03;;;18.73;;
12623;SDS011;6377;42.836;23.998;2023-02-11T00:41:29;37.53;;;18.87;;
12623;SDS011;6377;42.836;23.998;2023-02-11T00:43:57;45.30;;;20.53;;
12623;SDS011;6377;42.836;23.998;2023-02-11T00:46:24;30.37;;;16.13;;
12623;SDS011;6377;42.836;23.998;2023-02-11T00:48:51;31.00;;;16.37;;
12623;SDS011;6377;42.836;23.998;2023-02-11T00:51:21;53.93;;;25.83;;
12623;SDS011;6377;42.836;23.998;2023-02-11T00:53:49;100.23;;;42.00;;
12623;SDS011;6377;42.836;23.998;2023-02-11T00:56:16;134.03;;;51.33;;
12623;SDS011;6377;42.836;23.998;2023-02-11T00:58:45;131.47;;;53.50;;
12623;SDS011;6377;42.836;23.998;2023-02-11T01:01:12;111.00;;;49.67;;
12623;SDS011;6377;42.836;23.998;2023-02-11T01:03:39;107.80;;;46.50;;
12623;SDS011;6377;42.836;23.998;2023-02-11T01:06:07;131.57;;;55.07;;
12623;SDS011;6377;42.836;23.998;2023-02-11T01:08:35;80.17;;;38.10;;
12623;SDS011;6377;42.836;23.998;2023-02-11T01:11:04;88.33;;;40.87;;
12623;SDS011;6377;42.836;23.998;2023-02-11T01:13:33;72.33;;;35.70;;
12623;SDS011;6377;42.836;23.998;2023-02-11T01:16:03;70.10;;;33.93;;
12623;SDS011;6377;42.836;23.998;2023-02-11T01:18:33;65.27;;;32.07;;
12623;SDS011;6377;42.836;23.998;2023-02-11T01:21:01;66.77;;;33.67;;
12623;SDS011;6377;42.836;23.998;2023-02-11T01:23:29;94.67;;;42.10;;
12623;SDS011;6377;42.836;23.998;2023-02-11T01:25:56;75.43;;;36.90;;
12623;SDS011;6377;42.836;23.998;2023-02-11T01:28:25;64.17;;;30.63;;
12623;SDS011;6377;42.836;23.998;2023-02-11T01:30:53;57.33;;;25.80;;
12623;SDS011;6377;42.836;23.998;2023-02-11T01:33:22;56.80;;;24.33;;
12623;SDS011;6377;42.836;23.998;2023-02-11T01:35:50;47.57;;;21.67;;
12623;SDS011;6377;42.836;23.998;2023-02-11T01:38:18;48.00;;;23.57;;
12623;SDS011;6377;42.836;23.998;2023-02-11T01:40:47;60.00;;;26.80;;
12623;SDS011;6377;42.836;23.998;2023-02-11T01:43:16;53.33;;;24.17;;
12623;SDS011;6377;42.836;23.998;2023-02-11T01:48:31;51.93;;;23.17;;
12623;SDS011;6377;42.836;23.998;2023-02-11T01:51:03;58.07;;;26.27;;
12623;SDS011;6377;42.836;23.998;2023-02-11T01:53:34;61.70;;;29.20;;
12623;SDS011;6377;42.836;23.998;2023-02-11T01:56:21;49.30;;;23.67;;
12623;SDS011;6377;42.836;23.998;2023-02-11T01:59:09;50.57;;;24.80;;
12623;SDS011;6377;42.836;23.998;2023-02-11T02:01:40;41.73;;;19.73;;
12623;SDS011;6377;42.836;23.998;2023-02-11T02:04:16;39.20;;;18.60;;
12623;SDS011;6377;42.836;23.998;2023-02-11T02:06:47;46.93;;;23.37;;
12623;SDS011;6377;42.836;23.998;2023-02-11T02:09:17;45.00;;;20.77;;
12623;SDS011;6377;42.836;23.998;2023-02-11T02:11:47;44.53;;;21.17;;
12623;SDS011;6377;42.836;23.998;2023-02-11T02:14:15;65.53;;;26.07;;
12623;SDS011;6377;42.836;23.998;2023-02-11T02:16:42;53.80;;;24.43;;
12623;SDS011;6377;42.836;23.998;2023-02-11T02:19:22;48.57;;;20.63;;
12623;SDS011;6377;42.836;23.998;2023-02-11T02:22:40;41.17;;;18.80;;
12623;SDS011;6377;42.836;23.998;2023-02-11T02:25:41;36.60;;;17.10;;
12623;SDS011;6377;42.836;23.998;2023-02-11T02:28:35;45.07;;;22.77;;
12623;SDS011;6377;42.836;23.998;2023-02-11T02:31:33;62.00;;;26.70;;
12623;SDS011;6377;42.836;23.998;2023-02-11T02:34:16;38.17;;;18.37;;
12623;SDS011;6377;42.836;23.998;2023-02-11T02:36:50;42.67;;;20.47;;
12623;SDS011;6377;42.836;23.998;2023-02-11T02:39:23;41.57;;;19.77;;
12623;SDS011;6377;42.836;23.998;2023-02-11T02:41:54;42.67;;;19.40;;
12623;SDS011;6377;42.836;23.998;2023-02-11T02:44:22;37.73;;;19.67;;
12623;SDS011;6377;42.836;23.998;2023-02-11T02:46:50;45.07;;;21.87;;
12623;SDS011;6377;42.836;23.998;2023-02-11T02:49:19;42.73;;;19.67;;
12623;SDS011;6377;42.836;23.998;2023-02-11T02:51:58;37.47;;;20.10;;
12623;SDS011;6377;42.836;23.998;2023-02-11T02:57:50;56.93;;;26.17;;
12623;SDS011;6377;42.836;23.998;2023-02-11T03:00:31;59.27;;;27.03;;
12623;SDS011;6377;42.836;23.998;2023-02-11T03:03:14;65.87;;;29.50;;
12623;SDS011;6377;42.836;23.998;2023-02-11T03:05:51;55.13;;;25.27;;
12623;SDS011;6377;42.836;23.998;2023-02-11T03:08:24;37.73;;;18.20;;
12623;SDS011;6377;42.836;23.998;2023-02-11T03:10:56;35.23;;;17.43;;
12623;SDS011;6377;42.836;23.998;2023-02-11T03:13:25;40.53;;;18.73;;
12623;SDS011;6377;42.836;23.998;2023-02-11T03:15:57;37.30;;;19.47;;
12623;SDS011;6377;42.836;23.998;2023-02-11T03:18:30;33.77;;;17.83;;
12623;SDS011;6377;42.836;23.998;2023-02-11T03:21:02;28.10;;;14.27;;
12623;SDS011;6377;42.836;23.998;2023-02-11T03:23:35;23.50;;;11.60;;
12623;SDS011;6377;42.836;23.998;2023-02-11T03:26:07;23.90;;;12.60;;
12623;SDS011;6377;42.836;23.998;2023-02-11T03:28:41;22.63;;;12.17;;
12623;SDS011;6377;42.836;23.998;2023-02-11T03:31:13;22.07;;;12.10;;
12623;SDS011;6377;42.836;23.998;2023-02-11T03:33:47;22.90;;;12.17;;
12623;SDS011;6377;42.836;23.998;2023-02-11T03:36:25;31.37;;;16.50;;
12623;SDS011;6377;42.836;23.998;2023-02-11T03:38:58;45.57;;;18.80;;
12623;SDS011;6377;42.836;23.998;2023-02-11T03:41:28;60.73;;;27.50;;
12623;SDS011;6377;42.836;23.998;2023-02-11T03:43:57;75.77;;;35.47;;
12623;SDS011;6377;42.836;23.998;2023-02-11T03:46:27;100.37;;;41.20;;
12623;SDS011;6377;42.836;23.998;2023-02-11T03:49:00;91.50;;;39.23;;
12623;SDS011;6377;42.836;23.998;2023-02-11T03:51:31;76.97;;;35.80;;
12623;SDS011;6377;42.836;23.998;2023-02-11T03:54:00;73.37;;;34.80;;
12623;SDS011;6377;42.836;23.998;2023-02-11T03:56:32;79.97;;;35.37;;
12623;SDS011;6377;42.836;23.998;2023-02-11T03:59:05;90.83;;;40.27;;
12623;SDS011;6377;42.836;23.998;2023-02-11T04:01:33;84.90;;;38.77;;
12623;SDS011;6377;42.836;23.998;2023-02-11T04:04:00;78.87;;;36.87;;
12623;SDS011;6377;42.836;23.998;2023-02-11T04:06:28;69.00;;;33.93;;
12623;SDS011;6377;42.836;23.998;2023-02-11T04:08:56;64.93;;;31.63;;
12623;SDS011;6377;42.836;23.998;2023-02-11T04:11:23;52.90;;;26.00;;
12623;SDS011;6377;42.836;23.998;2023-02-11T04:13:51;54.10;;;24.53;;
12623;SDS011;6377;42.836;23.998;2023-02-11T04:16:18;56.33;;;28.57;;
12623;SDS011;6377;42.836;23.998;2023-02-11T04:18:45;56.20;;;26.90;;
12623;SDS011;6377;42.836;23.998;2023-02-11T04:21:13;62.73;;;29.03;;
12623;SDS011;6377;42.836;23.998;2023-02-11T04:23:40;44.13;;;22.80;;
12623;SDS011;6377;42.836;23.998;2023-02-11T04:26:09;42.77;;;21.40;;
12623;SDS011;6377;42.836;23.998;2023-02-11T04:28:36;54.90;;;29.77;;
12623;SDS011;6377;42.836;23.998;2023-02-11T04:31:03;50.50;;;25.03;;
12623;SDS011;6377;42.836;23.998;2023-02-11T04:33:31;50.77;;;26.33;;
12623;SDS011;6377;42.836;23.998;2023-02-11T04:35:58;44.97;;;20.97;;
12623;SDS011;6377;42.836;23.998;2023-02-11T04:38:25;44.13;;;20.63;;
12623;SDS011;6377;42.836;23.998;2023-02-11T04:40:52;45.33;;;21.73;;
12623;SDS011;6377;42.836;23.998;2023-02-11T04:43:21;47.27;;;24.87;;
12623;SDS011;6377;42.836;23.998;2023-02-11T04:45:48;58.70;;;27.97;;
12623;SDS011;6377;42.836;23.998;2023-02-11T04:48:15;55.97;;;26.30;;
12623;SDS011;6377;42.836;23.998;2023-02-11T04:50:42;74.17;;;34.77;;
12623;SDS011;6377;42.836;23.998;2023-02-11T04:53:09;65.37;;;31.17;;
12623;SDS011;6377;42.836;23.998;2023-02-11T04:55:36;105.10;;;48.83;;
12623;SDS011;6377;42.836;23.998;2023-02-11T04:58:03;92.73;;;45.00;;
12623;SDS011;6377;42.836;23.998;2023-02-11T05:00:32;90.87;;;42.57;;
12623;SDS011;6377;42.836;23.998;2023-02-11T05:02:59;99.93;;;44.87;;
12623;SDS011;6377;42.836;23.998;2023-02-11T05:05:26;101.70;;;42.43;;
12623;SDS011;6377;42.836;23.998;2023-02-11T05:07:53;93.80;;;44.60;;
12623;SDS011;6377;42.836;23.998;2023-02-11T05:10:21;96.33;;;46.67;;
12623;SDS011;6377;42.836;23.998;2023-02-11T05:12:48;99.07;;;42.83;;
12623;SDS011;6377;42.836;23.998;2023-02-11T05:15:15;88.40;;;41.77;;
12623;SDS011;6377;42.836;23.998;2023-02-11T05:17:44;98.40;;;45.57;;
12623;SDS011;6377;42.836;23.998;2023-02-11T05:20:11;93.90;;;42.60;;
12623;SDS011;6377;42.836;23.998;2023-02-11T05:22:38;74.63;;;36.53;;
12623;SDS011;6377;42.836;23.998;2023-02-11T05:25:06;76.83;;;32.43;;
12623;SDS011;6377;42.836;23.998;2023-02-11T05:27:33;74.67;;;36.33;;
12623;SDS011;6377;42.836;23.998;2023-02-11T05:30:01;83.13;;;40.97;;
12623;SDS011;6377;42.836;23.998;2023-02-11T05:32:28;137.33;;;61.67;;
12623;SDS011;6377;42.836;23.998;2023-02-11T05:34:56;100.60;;;43.90;;
12623;SDS011;6377;42.836;23.998;2023-02-11T05:37:24;114.20;;;48.90;;
12623;SDS011;6377;42.836;23.998;2023-02-11T05:39:51;116.70;;;49.17;;
12623;SDS011;6377;42.836;23.998;2023-02-11T05:42:18;105.70;;;51.60;;
12623;SDS011;6377;42.836;23.998;2023-02-11T05:44:45;106.57;;;50.47;;
12623;SDS011;6377;42.836;23.998;2023-02-11T05:47:13;114.87;;;53.20;;
12623;SDS011;6377;42.836;23.998;2023-02-11T05:49:40;114.27;;;54.60;;
12623;SDS011;6377;42.836;23.998;2023-02-11T05:52:09;113.90;;;52.43;;
12623;SDS011;6377;42.836;23.998;2023-02-11T05:54:36;119.13;;;55.47;;
12623;SDS011;6377;42.836;23.998;2023-02-11T05:57:03;115.30;;;52.00;;
12623;SDS011;6377;42.836;23.998;2023-02-11T05:59:30;117.60;;;53.23;;
12623;SDS011;6377;42.836;23.998;2023-02-11T06:01:57;107.47;;;50.43;;
12623;SDS011;6377;42.836;23.998;2023-02-11T06:04:24;103.40;;;49.97;;
12623;SDS011;6377;42.836;23.998;2023-02-11T06:06:52;136.17;;;63.63;;
12623;SDS011;6377;42.836;23.998;2023-02-11T06:09:20;229.47;;;95.03;;
12623;SDS011;6377;42.836;23.998;2023-02-11T06:11:48;158.73;;;67.63;;
12623;SDS011;6377;42.836;23.998;2023-02-11T06:14:15;330.70;;;129.50;;
12623;SDS011;6377;42.836;23.998;2023-02-11T06:16:42;143.73;;;60.20;;
12623;SDS011;6377;42.836;23.998;2023-02-11T06:19:12;154.33;;;64.57;;
12623;SDS011;6377;42.836;23.998;2023-02-11T06:21:39;99.13;;;46.50;;
12623;SDS011;6377;42.836;23.998;2023-02-11T06:24:07;116.40;;;55.60;;
12623;SDS011;6377;42.836;23.998;2023-02-11T06:26:35;114.33;;;52.73;;
12623;SDS011;6377;42.836;23.998;2023-02-11T06:29:03;118.77;;;57.00;;
12623;SDS011;6377;42.836;23.998;2023-02-11T06:31:30;117.37;;;60.63;;
12623;SDS011;6377;42.836;23.998;2023-02-11T06:33:57;127.50;;;64.07;;
12623;SDS011;6377;42.836;23.998;2023-02-11T06:36:24;295.70;;;121.03;;
12623;SDS011;6377;42.836;23.998;2023-02-11T06:38:51;142.83;;;65.77;;
12623;SDS011;6377;42.836;23.998;2023-02-11T06:41:19;113.93;;;55.27;;
12623;SDS011;6377;42.836;23.998;2023-02-11T06:43:48;109.73;;;51.80;;
12623;SDS011;6377;42.836;23.998;2023-02-11T06:46:15;103.27;;;51.13;;
12623;SDS011;6377;42.836;23.998;2023-02-11T06:48:42;120.90;;;57.10;;
12623;SDS011;6377;42.836;23.998;2023-02-11T06:51:10;151.83;;;71.23;;
12623;SDS011;6377;42.836;23.998;2023-02-11T06:53:39;127.60;;;61.27;;
12623;SDS011;6377;42.836;23.998;2023-02-11T06:56:10;176.17;;;82.67;;
12623;SDS011;6377;42.836;23.998;2023-02-11T06:58:39;280.73;;;102.43;;
12623;SDS011;6377;42.836;23.998;2023-02-11T07:01:09;312.73;;;112.67;;
12623;SDS011;6377;42.836;23.998;2023-02-11T07:03:38;421.60;;;143.43;;
12623;SDS011;6377;42.836;23.998;2023-02-11T07:06:10;480.50;;;162.93;;
12623;SDS011;6377;42.836;23.998;2023-02-11T07:08:39;459.13;;;161.33;;
12623;SDS011;6377;42.836;23.998;2023-02-11T07:11:08;358.23;;;135.63;;
12623;SDS011;6377;42.836;23.998;2023-02-11T07:13:36;335.07;;;129.87;;
12623;SDS011;6377;42.836;23.998;2023-02-11T07:16:04;289.93;;;119.63;;
12623;SDS011;6377;42.836;23.998;2023-02-11T07:18:33;231.67;;;100.20;;
12623;SDS011;6377;42.836;23.998;2023-02-11T07:21:02;231.97;;;101.17;;
12623;SDS011;6377;42.836;23.998;2023-02-11T07:23:31;217.60;;;98.50;;
12623;SDS011;6377;42.836;23.998;2023-02-11T07:26:01;252.57;;;115.90;;
12623;SDS011;6377;42.836;23.998;2023-02-11T07:28:29;255.57;;;122.33;;
12623;SDS011;6377;42.836;23.998;2023-02-11T07:30:57;306.00;;;143.73;;
12623;SDS011;6377;42.836;23.998;2023-02-11T07:33:24;329.97;;;151.27;;
12623;SDS011;6377;42.836;23.998;2023-02-11T07:35:52;324.83;;;146.63;;
12623;SDS011;6377;42.836;23.998;2023-02-11T07:38:20;339.83;;;154.27;;
12623;SDS011;6377;42.836;23.998;2023-02-11T07:40:47;344.80;;;166.80;;
12623;SDS011;6377;42.836;23.998;2023-02-11T07:43:14;327.47;;;159.53;;
12623;SDS011;6377;42.836;23.998;2023-02-11T07:45:41;305.87;;;148.40;;
12623;SDS011;6377;42.836;23.998;2023-02-11T07:48:09;279.30;;;140.80;;
12623;SDS011;6377;42.836;23.998;2023-02-11T07:50:36;255.70;;;130.93;;
12623;SDS011;6377;42.836;23.998;2023-02-11T07:53:04;203.03;;;106.97;;
12623;SDS011;6377;42.836;23.998;2023-02-11T07:55:32;225.43;;;115.83;;
12623;SDS011;6377;42.836;23.998;2023-02-11T07:57:59;225.67;;;115.40;;
12623;SDS011;6377;42.836;23.998;2023-02-11T08:00:26;200.03;;;105.70;;
12623;SDS011;6377;42.836;23.998;2023-02-11T08:02:55;204.10;;;104.10;;
12623;SDS011;6377;42.836;23.998;2023-02-11T08:05:22;182.93;;;91.63;;
12623;SDS011;6377;42.836;23.998;2023-02-11T08:07:50;179.07;;;91.10;;
12623;SDS011;6377;42.836;23.998;2023-02-11T08:10:19;169.93;;;90.30;;
12623;SDS011;6377;42.836;23.998;2023-02-11T08:12:46;266.30;;;128.67;;
12623;SDS011;6377;42.836;23.998;2023-02-11T08:17:49;192.77;;;104.33;;
12623;SDS011;6377;42.836;23.998;2023-02-11T08:23:31;151.17;;;83.07;;
12623;SDS011;6377;42.836;23.998;2023-02-11T08:26:01;164.43;;;87.90;;
12623;SDS011;6377;42.836;23.998;2023-02-11T08:28:29;154.30;;;81.00;;
12623;SDS011;6377;42.836;23.998;2023-02-11T08:30:56;164.87;;;88.93;;
12623;SDS011;6377;42.836;23.998;2023-02-11T08:33:24;168.60;;;92.83;;
12623;SDS011;6377;42.836;23.998;2023-02-11T08:35:51;158.30;;;90.10;;
12623;SDS011;6377;42.836;23.998;2023-02-11T08:38:18;162.57;;;89.80;;
12623;SDS011;6377;42.836;23.998;2023-02-11T08:43:15;174.97;;;97.47;;
12623;SDS011;6377;42.836;23.998;2023-02-11T08:50:52;168.23;;;98.13;;
12623;SDS011;6377;42.836;23.998;2023-02-11T08:53:20;173.93;;;95.03;;
12623;SDS011;6377;42.836;23.998;2023-02-11T08:55:48;170.37;;;91.53;;
12623;SDS011;6377;42.836;23.998;2023-02-11T08:58:17;163.60;;;90.47;;
12623;SDS011;6377;42.836;23.998;2023-02-11T09:00:44;154.50;;;84.47;;
12623;SDS011;6377;42.836;23.998;2023-02-11T09:03:12;134.70;;;74.60;;
12623;SDS011;6377;42.836;23.998;2023-02-11T09:05:40;130.67;;;75.03;;
12623;SDS011;6377;42.836;23.998;2023-02-11T09:08:08;139.43;;;80.17;;
12623;SDS011;6377;42.836;23.998;2023-02-11T09:10:35;145.23;;;79.83;;
12623;SDS011;6377;42.836;23.998;2023-02-11T09:13:04;144.73;;;81.87;;
12623;SDS011;6377;42.836;23.998;2023-02-11T09:15:33;125.17;;;64.87;;
12623;SDS011;6377;42.836;23.998;2023-02-11T09:18:01;95.90;;;55.43;;
12623;SDS011;6377;42.836;23.998;2023-02-11T09:20:28;98.97;;;55.37;;
12623;SDS011;6377;42.836;23.998;2023-02-11T09:22:56;72.50;;;43.60;;
12623;SDS011;6377;42.836;23.998;2023-02-11T09:25:25;65.07;;;38.37;;
12623;SDS011;6377;42.836;23.998;2023-02-11T09:27:52;59.10;;;38.47;;
12623;SDS011;6377;42.836;23.998;2023-02-11T09:30:19;50.97;;;33.63;;
12623;SDS011;6377;42.836;23.998;2023-02-11T09:32:48;45.70;;;28.73;;
12623;SDS011;6377;42.836;23.998;2023-02-11T09:35:15;36.97;;;23.87;;
12623;SDS011;6377;42.836;23.998;2023-02-11T09:37:43;59.83;;;36.87;;
12623;SDS011;6377;42.836;23.998;2023-02-11T09:40:10;64.90;;;39.77;;
12623;SDS011;6377;42.836;23.998;2023-02-11T09:42:43;62.37;;;36.87;;
12623;SDS011;6377;42.836;23.998;2023-02-11T09:45:14;75.53;;;44.10;;
12623;SDS011;6377;42.836;23.998;2023-02-11T09:47:46;53.00;;;32.17;;
12623;SDS011;6377;42.836;23.998;2023-02-11T09:50:20;67.23;;;39.07;;
12623;SDS011;6377;42.836;23.998;2023-02-11T09:52:51;57.67;;;33.97;;
12623;SDS011;6377;42.836;23.998;2023-02-11T09:55:24;18.67;;;12.60;;
12623;SDS011;6377;42.836;23.998;2023-02-11T09:57:54;28.17;;;18.20;;
12623;SDS011;6377;42.836;23.998;2023-02-11T10:00:22;19.63;;;12.50;;
12623;SDS011;6377;42.836;23.998;2023-02-11T10:09:08;28.83;;;18.03;;
12623;SDS011;6377;42.836;23.998;2023-02-11T10:11:48;19.63;;;11.57;;
12623;SDS011;6377;42.836;23.998;2023-02-11T10:14:27;16.90;;;9.10;;
12623;SDS011;6377;42.836;23.998;2023-02-11T10:17:16;23.43;;;13.87;;
12623;SDS011;6377;42.836;23.998;2023-02-11T10:20:00;13.97;;;7.57;;
12623;SDS011;6377;42.836;23.998;2023-02-11T10:22:40;17.33;;;11.17;;
12623;SDS011;6377;42.836;23.998;2023-02-11T10:25:16;21.93;;;13.03;;
12623;SDS011;6377;42.836;23.998;2023-02-11T10:27:46;22.57;;;14.10;;
12623;SDS011;6377;42.836;23.998;2023-02-11T10:30:18;14.60;;;9.90;;
12623;SDS011;6377;42.836;23.998;2023-02-11T10:32:51;12.60;;;9.20;;
12623;SDS011;6377;42.836;23.998;2023-02-11T10:35:23;23.13;;;14.87;;
12623;SDS011;6377;42.836;23.998;2023-02-11T10:37:53;9.97;;;7.37;;
12623;SDS011;6377;42.836;23.998;2023-02-11T10:40:22;25.13;;;16.73;;
12623;SDS011;6377;42.836;23.998;2023-02-11T10:42:51;19.17;;;11.13;;
12623;SDS011;6377;42.836;23.998;2023-02-11T10:50:25;9.83;;;6.57;;
12623;SDS011;6377;42.836;23.998;2023-02-11T10:53:08;12.27;;;8.60;;
12623;SDS011;6377;42.836;23.998;2023-02-11T10:55:38;25.03;;;15.63;;
12623;SDS011;6377;42.836;23.998;2023-02-11T10:58:21;7.77;;;5.00;;
12623;SDS011;6377;42.836;23.998;2023-02-11T11:03:19;12.43;;;8.17;;
12623;SDS011;6377;42.836;23.998;2023-02-11T11:05:48;17.37;;;10.47;;
12623;SDS011;6377;42.836;23.998;2023-02-11T11:08:19;17.20;;;10.33;;
12623;SDS011;6377;42.836;23.998;2023-02-11T11:10:47;11.67;;;6.97;;
12623;SDS011;6377;42.836;23.998;2023-02-11T11:13:25;17.33;;;10.53;;
12623;SDS011;6377;42.836;23.998;2023-02-11T11:18:45;20.07;;;11.10;;
12623;SDS011;6377;42.836;23.998;2023-02-11T11:21:15;11.07;;;6.20;;
12623;SDS011;6377;42.836;23.998;2023-02-11T11:23:48;17.17;;;9.67;;
12623;SDS011;6377;42.836;23.998;2023-02-11T11:26:18;20.13;;;12.33;;
12623;SDS011;6377;42.836;23.998;2023-02-11T11:28:50;24.83;;;16.60;;
12623;SDS011;6377;42.836;23.998;2023-02-11T11:31:21;22.83;;;13.17;;
12623;SDS011;6377;42.836;23.998;2023-02-11T11:33:50;27.87;;;17.80;;
12623;SDS011;6377;42.836;23.998;2023-02-11T11:36:20;27.60;;;14.73;;
12623;SDS011;6377;42.836;23.998;2023-02-11T11:38:52;46.23;;;22.57;;
12623;SDS011;6377;42.836;23.998;2023-02-11T11:41:23;22.70;;;12.40;;
12623;SDS011;6377;42.836;23.998;2023-02-11T11:43:56;27.47;;;15.80;;
12623;SDS011;6377;42.836;23.998;2023-02-11T11:46:26;19.67;;;11.43;;
12623;SDS011;6377;42.836;23.998;2023-02-11T11:49:12;47.97;;;21.80;;
12623;SDS011;6377;42.836;23.998;2023-02-11T11:51:48;41.00;;;21.10;;
12623;SDS011;6377;42.836;23.998;2023-02-11T11:54:23;42.23;;;24.30;;
12623;SDS011;6377;42.836;23.998;2023-02-11T11:56:54;42.27;;;23.67;;
12623;SDS011;6377;42.836;23.998;2023-02-11T11:59:26;31.03;;;19.47;;
12623;SDS011;6377;42.836;23.998;2023-02-11T12:02:04;22.80;;;14.17;;
12623;SDS011;6377;42.836;23.998;2023-02-11T12:04:59;23.50;;;13.93;;
12623;SDS011;6377;42.836;23.998;2023-02-11T12:07:37;23.77;;;15.80;;
12623;SDS011;6377;42.836;23.998;2023-02-11T12:10:20;20.40;;;14.57;;
12623;SDS011;6377;42.836;23.998;2023-02-11T12:12:59;18.77;;;13.03;;
12623;SDS011;6377;42.836;23.998;2023-02-11T12:15:35;15.57;;;10.80;;
12623;SDS011;6377;42.836;23.998;2023-02-11T12:18:15;20.83;;;13.33;;
12623;SDS011;6377;42.836;23.998;2023-02-11T12:21:00;20.63;;;14.33;;
12623;SDS011;6377;42.836;23.998;2023-02-11T12:23:44;15.47;;;10.43;;
12623;SDS011;6377;42.836;23.998;2023-02-11T12:26:21;12.50;;;9.00;;
12623;SDS011;6377;42.836;23.998;2023-02-11T12:28:57;15.83;;;7.70;;
12623;SDS011;6377;42.836;23.998;2023-02-11T12:31:36;17.23;;;11.67;;
12623;SDS011;6377;42.836;23.998;2023-02-11T12:34:30;17.23;;;11.53;;
12623;SDS011;6377;42.836;23.998;2023-02-11T12:37:29;15.73;;;10.20;;
12623;SDS011;6377;42.836;23.998;2023-02-11T12:40:08;19.20;;;13.37;;
12623;SDS011;6377;42.836;23.998;2023-02-11T12:42:50;21.73;;;14.10;;
12623;SDS011;6377;42.836;23.998;2023-02-11T12:45:43;20.47;;;11.53;;
12623;SDS011;6377;42.836;23.998;2023-02-11T12:48:30;20.97;;;13.50;;
12623;SDS011;6377;42.836;23.998;2023-02-11T12:51:06;18.27;;;10.67;;
12623;SDS011;6377;42.836;23.998;2023-02-11T12:53:45;24.17;;;13.37;;
12623;SDS011;6377;42.836;23.998;2023-02-11T12:56:25;49.00;;;24.00;;
12623;SDS011;6377;42.836;23.998;2023-02-11T12:59:01;24.33;;;14.47;;
12623;SDS011;6377;42.836;23.998;2023-02-11T13:01:33;34.90;;;17.80;;
12623;SDS011;6377;42.836;23.998;2023-02-11T13:04:04;23.73;;;12.27;;
12623;SDS011;6377;42.836;23.998;2023-02-11T13:06:37;17.47;;;10.13;;
12623;SDS011;6377;42.836;23.998;2023-02-11T13:09:10;21.67;;;12.43;;
12623;SDS011;6377;42.836;23.998;2023-02-11T13:11:46;18.17;;;9.97;;
12623;SDS011;6377;42.836;23.998;2023-02-11T13:14:23;14.00;;;7.80;;
12623;SDS011;6377;42.836;23.998;2023-02-11T13:16:52;16.57;;;9.80;;
12623;SDS011;6377;42.836;23.998;2023-02-11T13:19:22;26.93;;;14.90;;
12623;SDS011;6377;42.836;23.998;2023-02-11T13:21:58;22.57;;;13.40;;
12623;SDS011;6377;42.836;23.998;2023-02-11T13:24:32;36.00;;;20.50;;
12623;SDS011;6377;42.836;23.998;2023-02-11T13:27:10;35.03;;;19.70;;
12623;SDS011;6377;42.836;23.998;2023-02-11T13:33:05;24.70;;;13.43;;
12623;SDS011;6377;42.836;23.998;2023-02-11T13:35:47;27.47;;;14.47;;
12623;SDS011;6377;42.836;23.998;2023-02-11T13:38:35;22.60;;;13.50;;
12623;SDS011;6377;42.836;23.998;2023-02-11T13:41:04;20.57;;;12.80;;
12623;SDS011;6377;42.836;23.998;2023-02-11T13:43:41;79.33;;;39.23;;
12623;SDS011;6377;42.836;23.998;2023-02-11T13:46:11;79.30;;;38.37;;
12623;SDS011;6377;42.836;23.998;2023-02-11T13:48:44;79.47;;;38.13;;
12623;SDS011;6377;42.836;23.998;2023-02-11T13:51:15;57.90;;;30.23;;
12623;SDS011;6377;42.836;23.998;2023-02-11T13:53:45;30.03;;;17.40;;
12623;SDS011;6377;42.836;23.998;2023-02-11T13:56:22;84.77;;;41.23;;
12623;SDS011;6377;42.836;23.998;2023-02-11T13:58:54;65.33;;;32.57;;
12623;SDS011;6377;42.836;23.998;2023-02-11T14:01:39;46.30;;;24.73;;
12623;SDS011;6377;42.836;23.998;2023-02-11T14:04:45;28.23;;;15.37;;
12623;SDS011;6377;42.836;23.998;2023-02-11T14:11:06;45.17;;;26.37;;
12623;SDS011;6377;42.836;23.998;2023-02-11T14:19:49;27.40;;;17.63;;
12623;SDS011;6377;42.836;23.998;2023-02-11T14:22:19;21.17;;;14.20;;
12623;SDS011;6377;42.836;23.998;2023-02-11T14:24:51;25.87;;;16.50;;
12623;SDS011;6377;42.836;23.998;2023-02-11T14:27:26;25.30;;;15.43;;
12623;SDS011;6377;42.836;23.998;2023-02-11T14:33:07;28.77;;;17.40;;
12623;SDS011;6377;42.836;23.998;2023-02-11T14:36:00;29.77;;;20.53;;
12623;SDS011;6377;42.836;23.998;2023-02-11T14:38:37;30.27;;;19.30;;
12623;SDS011;6377;42.836;23.998;2023-02-11T14:41:15;30.00;;;19.27;;
12623;SDS011;6377;42.836;23.998;2023-02-11T14:43:46;43.03;;;26.03;;
12623;SDS011;6377;42.836;23.998;2023-02-11T14:46:16;30.57;;;18.70;;
12623;SDS011;6377;42.836;23.998;2023-02-11T14:48:45;28.53;;;18.30;;
12623;SDS011;6377;42.836;23.998;2023-02-11T14:51:17;41.17;;;23.03;;
12623;SDS011;6377;42.836;23.998;2023-02-11T14:53:48;40.40;;;23.63;;
12623;SDS011;6377;42.836;23.998;2023-02-11T14:56:17;47.03;;;29.40;;
12623;SDS011;6377;42.836;23.998;2023-02-11T14:58:47;49.77;;;30.40;;
12623;SDS011;6377;42.836;23.998;2023-02-11T15:01:23;45.57;;;26.87;;
12623;SDS011;6377;42.836;23.998;2023-02-11T15:03:53;91.47;;;56.03;;
12623;SDS011;6377;42.836;23.998;2023-02-11T15:06:27;111.83;;;62.30;;
12623;SDS011;6377;42.836;23.998;2023-02-11T15:08:58;140.90;;;78.27;;
12623;SDS011;6377;42.836;23.998;2023-02-11T15:11:28;150.00;;;83.23;;
12623;SDS011;6377;42.836;23.998;2023-02-11T15:14:00;105.10;;;54.83;;
12623;SDS011;6377;42.836;23.998;2023-02-11T15:16:34;92.93;;;51.93;;
12623;SDS011;6377;42.836;23.998;2023-02-11T15:19:07;44.03;;;24.87;;
12623;SDS011;6377;42.836;23.998;2023-02-11T15:21:48;71.27;;;36.73;;
12623;SDS011;6377;42.836;23.998;2023-02-11T15:24:21;43.03;;;24.47;;
12623;SDS011;6377;42.836;23.998;2023-02-11T15:26:55;89.90;;;44.63;;
12623;SDS011;6377;42.836;23.998;2023-02-11T15:29:26;73.50;;;40.03;;
12623;SDS011;6377;42.836;23.998;2023-02-11T15:32:04;282.03;;;133.67;;
12623;SDS011;6377;42.836;23.998;2023-02-11T15:34:32;219.03;;;89.37;;
12623;SDS011;6377;42.836;23.998;2023-02-11T15:37:02;127.10;;;63.07;;